Time;durP1;ratioP1;P1;durP2;ratioP2;P2;SDS_P1;SDS_P2;PMS_P1;PMS_P2;Temp;Humidity;BMP_temperature;BMP_pressure;BME280_temperature;BME280_humidity;BME280_pressure;Samples;Min_cycle;Max_cycle;Signal;HPM_P1;HPM_P2
2022/07/26 00:00:47;;;;;;;5.40;3.00;;;;;;;18.94;64.41;99071.59;1756502;81;21616;-46
2022/07/26 00:03:16;;;;;;;3.62;3.00;;;;;;;18.94;64.31;99072.38;1757123;81;20879;-46
2022/07/26 00:05:43;;;;;;;7.60;3.30;;;;;;;18.91;64.33;99069.70;1756754;81;23128;-46
2022/07/26 00:08:10;;;;;;;6.58;3.77;;;;;;;18.89;64.28;99066.59;1756892;81;21024;-46
2022/07/26 00:10:40;;;;;;;7.30;3.05;;;;;;;18.88;64.16;99073.30;1757105;81;20942;-46
2022/07/26 00:13:07;;;;;;;11.03;4.40;;;;;;;18.85;64.19;99076.28;1757166;81;21013;-46
2022/07/26 00:15:34;;;;;;;6.20;3.42;;;;;;;18.81;64.30;99070.68;1757155;81;21045;-46
2022/07/26 00:18:03;;;;;;;5.45;3.30;;;;;;;18.75;64.50;99064.89;1757064;81;21222;-45
2022/07/26 00:20:31;;;;;;;3.87;2.87;;;;;;;18.71;64.68;99060.07;1757115;81;20961;-46
2022/07/26 00:22:58;;;;;;;5.00;3.15;;;;;;;18.72;64.67;99060.26;1756935;81;20938;-46
2022/07/26 00:25:25;;;;;;;4.12;3.08;;;;;;;18.73;64.65;99060.44;1756993;81;21527;-46
2022/07/26 00:27:52;;;;;;;5.72;3.00;;;;;;;18.69;64.64;99065.20;1756999;81;21653;-46
2022/07/26 00:30:22;;;;;;;9.40;3.50;;;;;;;18.66;64.65;99056.44;1756837;81;20961;-46
2022/07/26 00:32:49;;;;;;;5.37;3.00;;;;;;;18.61;64.60;99059.08;1757239;81;20968;-46
2022/07/26 00:35:16;;;;;;;4.42;3.10;;;;;;;18.59;64.61;99061.45;1756920;81;20989;-46
2022/07/26 00:37:43;;;;;;;5.00;3.12;;;;;;;18.57;64.64;99065.83;1756623;81;21584;-46
2022/07/26 00:40:11;;;;;;;5.47;2.92;;;;;;;18.55;64.55;99062.13;1757062;81;21597;-46
2022/07/26 00:42:38;;;;;;;4.67;3.27;;;;;;;18.53;64.46;99063.16;1756900;81;21235;-46
2022/07/26 00:45:07;;;;;;;6.12;3.15;;;;;;;18.53;64.53;99059.60;1756725;81;21602;-46
2022/07/26 00:47:34;;;;;;;5.22;2.80;;;;;;;18.50;64.58;99057.08;1756782;81;21001;-46
2022/07/26 00:50:04;;;;;;;7.65;3.40;;;;;;;18.49;64.60;99056.90;1752007;81;21001;-46
2022/07/26 00:52:31;;;;;;;4.42;2.92;;;;;;;18.46;64.68;99050.88;1743696;82;21040;-46
2022/07/26 00:54:58;;;;;;;4.92;3.10;;;;;;;18.40;64.76;99061.38;1743842;81;21230;-46
2022/07/26 00:57:26;;;;;;;4.05;3.15;;;;;;;18.37;64.85;99049.88;1743820;81;21532;-46
2022/07/26 00:59:54;;;;;;;5.42;3.35;;;;;;;18.31;64.95;99055.06;1744017;81;21535;-46
2022/07/26 01:02:21;;;;;;;3.47;2.83;;;;;;;18.29;65.01;99056.10;1732452;81;20986;-46
2022/07/26 01:04:48;;;;;;;3.40;2.75;;;;;;;18.28;64.99;99058.66;1714134;83;21010;-46
2022/07/26 01:07:15;;;;;;;3.55;3.00;;;;;;;18.25;65.04;99058.11;1713811;82;21222;-46
2022/07/26 01:09:42;;;;;;;3.62;2.80;;;;;;;18.22;65.16;99053.47;1679435;85;21456;-46
2022/07/26 01:12:11;;;;;;;4.22;3.35;;;;;;;18.18;65.27;99054.91;1703786;83;21041;-46
2022/07/26 01:14:44;;;;;;;5.30;3.30;;;;;;;18.16;65.22;99049.64;1681843;84;21538;-46
2022/07/26 01:17:12;;;;;;;5.15;2.67;;;;;;;18.13;65.24;99046.38;1707847;84;21559;-45
2022/07/26 01:19:41;;;;;;;5.90;2.83;;;;;;;18.12;65.24;99047.56;1707861;84;20968;-45
2022/07/26 01:22:08;;;;;;;5.33;3.27;;;;;;;18.14;65.27;99046.55;1707769;84;21000;-46
2022/07/26 01:24:36;;;;;;;4.60;2.83;;;;;;;18.15;65.21;99046.73;1707803;84;20941;-46
2022/07/26 01:27:04;;;;;;;6.33;3.10;;;;;;;18.12;65.17;99046.97;1707781;84;20976;-46
2022/07/26 01:29:31;;;;;;;4.67;3.22;;;;;;;18.10;65.10;99045.84;1707789;84;21013;-46
2022/07/26 01:32:00;;;;;;;4.87;3.52;;;;;;;18.07;65.05;99043.92;1707726;84;21180;-46
2022/07/26 01:34:28;;;;;;;6.17;3.70;;;;;;;18.04;65.00;99040.65;1707684;84;20937;-46
2022/07/26 01:36:55;;;;;;;5.45;3.08;;;;;;;18.02;65.04;99043.02;1707689;84;21029;-46
2022/07/26 01:39:23;;;;;;;3.85;3.00;;;;;;;17.98;65.05;99043.67;1707900;84;21009;-46
2022/07/26 01:41:50;;;;;;;4.70;3.17;;;;;;;17.97;65.02;99031.15;1707905;84;20990;-46
2022/07/26 01:44:17;;;;;;;5.65;3.20;;;;;;;17.98;64.89;99038.97;1707928;84;21245;-46
2022/07/26 01:46:44;;;;;;;6.42;3.33;;;;;;;18.02;64.83;99040.27;1707878;84;20925;-46
2022/07/26 01:49:12;;;;;;;5.40;3.45;;;;;;;18.02;64.86;99041.65;1707912;84;21475;-46
2022/07/26 01:51:40;;;;;;;4.90;3.22;;;;;;;18.02;64.84;99041.65;1710259;83;20945;-46
2022/07/26 01:54:07;;;;;;;4.75;3.67;;;;;;;18.00;64.77;99040.71;1715373;83;21044;-46
2022/07/26 01:56:34;;;;;;;4.83;3.33;;;;;;;17.99;64.76;99047.98;1715316;83;21244;-46
2022/07/26 01:59:01;;;;;;;4.33;3.75;;;;;;;17.92;64.80;99054.34;1715261;83;21084;-46
2022/07/26 02:01:28;;;;;;;5.30;3.40;;;;;;;17.87;64.92;99045.80;1715431;83;21559;-46
2022/07/26 02:03:55;;;;;;;4.47;3.50;;;;;;;17.85;64.98;99048.20;1715517;83;21618;-46
2022/07/26 02:06:22;;;;;;;7.35;3.47;;;;;;;17.83;64.98;99042.34;1715571;83;21530;-46
2022/07/26 02:08:49;;;;;;;4.85;3.70;;;;;;;17.83;65.00;99040.97;1715374;83;21565;-45
2022/07/26 02:11:16;;;;;;;5.08;4.05;;;;;;;17.79;65.02;99043.78;1715432;83;21668;-46
2022/07/26 02:13:44;;;;;;;8.00;3.83;;;;;;;17.74;65.06;99040.13;1714619;83;20996;-46
2022/07/26 02:16:13;;;;;;;8.75;4.50;;;;;;;17.73;65.06;99047.58;1715344;83;21598;-46
2022/07/26 02:18:41;;;;;;;5.50;4.00;;;;;;;17.71;65.09;99044.49;1688053;83;21061;-46
2022/07/26 02:21:08;;;;;;;9.73;4.60;;;;;;;17.66;65.15;99048.30;1715672;83;21198;-46
2022/07/26 02:23:36;;;;;;;7.95;4.53;;;;;;;17.55;65.24;99041.56;1715465;83;20961;-46
2022/07/26 02:26:03;;;;;;;8.00;4.30;;;;;;;17.44;65.40;99043.66;1715596;83;20960;-46
2022/07/26 02:28:30;;;;;;;9.48;4.75;;;;;;;17.36;65.67;99046.33;1715229;83;21048;-46
2022/07/26 02:30:57;;;;;;;10.15;4.85;;;;;;;17.33;65.84;99047.17;1715375;83;21071;-46
2022/07/26 02:33:24;;;;;;;9.85;5.10;;;;;;;17.33;65.99;99049.28;1715313;83;21252;-45
2022/07/26 02:35:51;;;;;;;8.15;5.55;;;;;;;17.36;65.89;99043.00;1715181;83;21574;-46
2022/07/26 02:38:18;;;;;;;10.58;5.85;;;;;;;17.38;65.72;99041.20;1715357;83;21546;-46
2022/07/26 02:40:45;;;;;;;8.55;5.55;;;;;;;17.35;65.59;99040.07;1715278;83;21130;-46
2022/07/26 02:43:12;;;;;;;7.85;5.67;;;;;;;17.34;65.47;99043.22;1715428;83;21048;-46
2022/07/26 02:45:39;;;;;;;12.43;5.47;;;;;;;17.29;65.45;99037.60;1715404;83;21249;-46
2022/07/26 02:48:07;;;;;;;8.33;5.72;;;;;;;17.28;65.54;99043.52;1715176;83;21499;-46
2022/07/26 02:50:34;;;;;;;9.30;6.15;;;;;;;17.30;65.46;99052.86;1715076;83;21020;-46
2022/07/26 02:53:01;;;;;;;8.30;5.97;;;;;;;17.35;65.33;99050.25;1715318;83;20976;-46
2022/07/26 02:55:28;;;;;;;10.40;6.60;;;;;;;17.35;65.31;99047.52;1714926;83;21013;-46
2022/07/26 02:57:55;;;;;;;11.90;6.42;;;;;;;17.36;65.31;99047.70;1715047;83;21243;-46
2022/07/26 03:00:24;;;;;;;8.03;6.33;;;;;;;17.35;65.35;99044.77;1715515;83;20981;-46
2022/07/26 03:02:51;;;;;;;11.35;6.72;;;;;;;17.32;65.37;99040.91;1715672;83;20964;-45
2022/07/26 03:05:18;;;;;;;9.50;6.00;;;;;;;17.26;65.53;99047.25;1715404;83;21677;-46
2022/07/26 03:07:46;;;;;;;8.90;5.97;;;;;;;17.24;65.55;99039.43;1714706;83;21475;-46
2022/07/26 03:10:13;;;;;;;9.38;5.97;;;;;;;17.29;65.65;99043.08;1715044;83;23174;-45
2022/07/26 03:12:41;;;;;;;10.53;6.47;;;;;;;17.33;65.61;99035.58;1715236;83;20999;-46
2022/07/26 03:15:09;;;;;;;10.32;6.15;;;;;;;17.33;65.66;99037.58;1715154;83;21001;-46
2022/07/26 03:17:36;;;;;;;9.58;6.22;;;;;;;17.34;65.65;99033.63;1715292;83;20989;-46
2022/07/26 03:20:04;;;;;;;9.60;6.28;;;;;;;17.34;65.58;99035.00;1715481;83;21000;-46
2022/07/26 03:22:31;;;;;;;12.03;6.10;;;;;;;17.34;65.70;99036.36;1709210;83;21221;-46
2022/07/26 03:24:58;;;;;;;8.48;5.62;;;;;;;17.36;65.84;99036.15;1715365;83;20932;-45
2022/07/26 03:27:25;;;;;;;7.28;5.35;;;;;;;17.36;65.80;99038.11;1715338;83;20976;-45
2022/07/26 03:29:52;;;;;;;12.78;5.78;;;;;;;17.41;65.92;99039.02;1715172;83;20993;-45
2022/07/26 03:32:19;;;;;;;12.85;6.30;;;;;;;17.50;65.99;99039.88;1715432;83;21048;-45
2022/07/26 03:34:46;;;;;;;8.98;6.03;;;;;;;17.55;66.00;99036.08;1715705;83;21507;-45
2022/07/26 03:37:13;;;;;;;11.85;6.03;;;;;;;17.59;65.98;99036.05;1715578;83;20956;-45
2022/07/26 03:39:40;;;;;;;13.60;6.30;;;;;;;17.63;65.92;99038.91;1715510;83;20976;-45
2022/07/26 03:42:07;;;;;;;8.78;6.03;;;;;;;17.69;65.88;99037.86;1715433;83;21092;-45
2022/07/26 03:44:33;;;;;;;7.65;6.15;;;;;;;17.71;65.87;99037.64;1715339;83;21025;-45
2022/07/26 03:47:00;;;;;;;9.83;5.65;;;;;;;17.74;65.79;99035.42;1715139;83;23177;-45
2022/07/26 03:49:27;;;;;;;9.78;5.42;;;;;;;17.79;65.63;99038.30;1715348;83;21573;-45
2022/07/26 03:51:54;;;;;;;8.53;5.67;;;;;;;17.86;65.50;99034.08;1713870;83;21000;-45
2022/07/26 03:54:21;;;;;;;9.08;5.80;;;;;;;17.90;65.38;99043.62;1707425;84;21033;-45
2022/07/26 03:56:49;;;;;;;7.03;5.22;;;;;;;17.92;65.40;99038.47;1707522;84;21040;-45
2022/07/26 03:59:17;;;;;;;8.73;5.85;;;;;;;17.94;65.41;99052.56;1707707;84;21530;-45
2022/07/26 04:01:44;;;;;;;8.40;5.90;;;;;;;17.97;65.42;99053.87;1707438;84;21517;-45
2022/07/26 04:06:06;;;;;;;9.78;5.60;;;;;;;18.05;65.71;99051.80;1783019;79;22463;-45
2022/07/26 04:08:33;;;;;;;7.83;4.92;;;;;;;18.05;65.94;99049.06;1755392;81;21009;-45
2022/07/26 04:11:00;;;;;;;8.45;5.65;;;;;;;18.14;65.95;99051.45;1755578;81;21243;-45
2022/07/26 04:13:27;;;;;;;9.10;5.65;;;;;;;18.21;65.58;99050.53;1755627;81;21029;-45
2022/07/26 04:15:54;;;;;;;9.13;6.10;;;;;;;18.23;65.43;99049.53;1755557;81;20994;-45
2022/07/26 04:18:22;;;;;;;7.65;5.55;;;;;;;18.28;65.58;99053.77;1755739;81;21002;-45
2022/07/26 04:20:49;;;;;;;8.55;5.67;;;;;;;18.35;65.68;99057.16;1755602;81;20942;-45
2022/07/26 04:23:17;;;;;;;8.33;5.72;;;;;;;18.40;65.43;99056.67;1755547;81;21235;-45
2022/07/26 04:25:44;;;;;;;6.95;5.20;;;;;;;18.43;65.27;99058.59;1755389;81;20978;-45
2022/07/26 04:28:11;;;;;;;7.75;4.97;;;;;;;18.50;65.32;99059.83;1755601;81;21002;-45
2022/07/26 04:30:38;;;;;;;7.75;4.87;;;;;;;18.57;65.13;99061.12;1755454;81;21093;-45
2022/07/26 04:33:05;;;;;;;8.18;5.03;;;;;;;18.57;65.12;99062.48;1755573;81;21086;-45
2022/07/26 04:35:32;;;;;;;7.95;4.40;;;;;;;18.58;65.22;99063.27;1755510;81;21132;-45
2022/07/26 04:38:01;;;;;;;6.72;4.85;;;;;;;18.62;65.37;99065.34;1755476;81;20991;-45
2022/07/26 04:40:32;;;;;;;6.67;4.12;;;;;;;18.63;65.59;99062.19;1756068;81;21002;-45
2022/07/26 04:42:57;;;;;;;6.80;4.10;;;;;;;18.72;65.83;99068.49;1755712;81;21556;-45
2022/07/26 04:45:24;;;;;;;6.33;4.42;;;;;;;18.82;65.68;99070.27;1755726;81;21003;-45
2022/07/26 04:47:51;;;;;;;5.30;3.67;;;;;;;18.91;65.43;99067.73;1755587;81;21252;-45
2022/07/26 04:50:19;;;;;;;4.42;3.60;;;;;;;19.01;65.53;99067.34;1755643;81;20939;-45
2022/07/26 04:52:49;;;;;;;5.78;4.35;;;;;;;19.08;65.41;99067.19;1755638;81;21014;-45
2022/07/26 04:55:18;;;;;;;5.20;4.08;;;;;;;19.15;65.52;99074.52;1755540;81;20999;-45
2022/07/26 04:57:45;;;;;;;5.25;3.27;;;;;;;19.22;65.83;99074.39;1755598;81;21042;-45
2022/07/26 05:00:14;;;;;;;3.87;3.30;;;;;;;19.31;65.76;99072.63;1755551;81;21220;-45
2022/07/26 05:02:41;;;;;;;3.85;3.20;;;;;;;19.43;65.80;99069.80;1755695;81;21043;-45
2022/07/26 05:05:09;;;;;;;5.20;3.00;;;;;;;19.55;65.61;99072.53;1752830;81;21540;-45
2022/07/26 05:07:44;;;;;;;4.47;2.90;;;;;;;19.64;65.48;99066.62;1750357;82;20998;-45
2022/07/26 05:10:11;;;;;;;4.22;2.70;;;;;;;19.76;65.45;99068.69;1750547;82;21049;-45
2022/07/26 05:12:38;;;;;;;4.10;2.70;;;;;;;19.87;64.73;99068.45;1750391;82;21244;-45
2022/07/26 05:15:07;;;;;;;2.77;2.02;;;;;;;19.92;64.29;99064.59;1750319;82;20927;-45
2022/07/26 05:17:39;;;;;;;4.07;2.30;;;;;;;20.01;63.95;99069.48;1750042;82;20991;-45
2022/07/26 05:20:11;;;;;;;2.45;2.02;;;;;;;20.12;63.66;99063.13;1749756;82;20991;-45
2022/07/26 05:22:38;;;;;;;2.72;2.00;;;;;;;20.23;63.37;99065.03;1751434;82;21013;-45
2022/07/26 05:25:07;;;;;;;2.15;1.95;;;;;;;20.32;63.16;99063.06;1751722;82;21135;-45
2022/07/26 05:27:34;;;;;;;3.00;2.10;;;;;;;20.42;62.55;99063.41;1751672;82;20938;-45
2022/07/26 05:30:01;;;;;;;2.10;1.60;;;;;;;20.52;62.68;99063.73;1751751;82;21001;-45
2022/07/26 05:32:29;;;;;;;3.22;2.00;;;;;;;20.61;62.39;99068.61;1751689;82;21583;-45
2022/07/26 05:34:56;;;;;;;3.00;1.72;;;;;;;20.68;61.83;99067.03;1751772;82;20989;-45
2022/07/26 05:37:23;;;;;;;4.40;1.80;;;;;;;20.75;61.28;99062.72;1751446;82;21310;-45
2022/07/26 05:39:50;;;;;;;1.95;1.50;;;;;;;20.77;60.77;99067.95;1715370;83;21503;-45
2022/07/26 05:42:17;;;;;;;2.58;1.80;;;;;;;20.81;60.92;99072.01;1715394;83;21048;-45
2022/07/26 05:44:43;;;;;;;4.87;1.90;;;;;;;20.85;60.61;99067.77;1715425;83;21506;-45
2022/07/26 05:47:11;;;;;;;2.08;1.52;;;;;;;20.91;61.10;99075.68;1715511;83;21027;-45
2022/07/26 05:49:37;;;;;;;2.10;1.55;;;;;;;21.00;60.33;99071.69;1715379;83;21152;-45
2022/07/26 05:52:05;;;;;;;2.47;1.80;;;;;;;21.09;59.92;99064.93;1715373;83;20985;-45
2022/07/26 05:54:32;;;;;;;2.17;1.80;;;;;;;21.12;59.90;99060.69;1715584;83;21048;-45
2022/07/26 05:56:59;;;;;;;2.60;1.55;;;;;;;21.18;59.78;99064.48;1715297;83;21024;-45
2022/07/26 05:59:26;;;;;;;2.62;1.80;;;;;;;21.26;59.35;99060.91;1715462;83;21052;-45
2022/07/26 06:01:55;;;;;;;3.67;1.70;;;;;;;21.31;59.05;99064.50;1715411;83;21213;-45
2022/07/26 06:04:23;;;;;;;2.67;1.50;;;;;;;21.37;59.01;99061.38;1715204;83;21049;-46
2022/07/26 06:06:53;;;;;;;3.65;1.75;;;;;;;21.44;58.71;99060.40;1715290;83;21003;-46
2022/07/26 06:09:20;;;;;;;;;;;;;;;21.52;58.75;99057.58;1717919;83;21013;-45
2022/07/26 06:11:47;;;;;;;1.82;1.47;;;;;;;21.58;58.68;99053.07;1699722;84;20201;-46
2022/07/26 06:14:14;;;;;;;4.83;1.42;;;;;;;21.54;58.50;99050.40;1707576;83;21251;-45
2022/07/26 06:16:41;;;;;;;5.37;1.52;;;;;;;21.62;58.57;99048.98;1707483;83;20969;-46
2022/07/26 06:19:08;;;;;;;2.67;1.70;;;;;;;21.67;57.58;99044.91;1707745;83;20998;-46
2022/07/26 06:21:35;;;;;;;2.08;1.50;;;;;;;21.71;57.84;99041.42;1707531;84;21594;-46
2022/07/26 06:24:02;;;;;;;2.00;1.42;;;;;;;21.74;57.32;99040.53;1707567;83;20974;-46
2022/07/26 06:26:29;;;;;;;1.87;1.30;;;;;;;21.75;56.81;99043.45;1707652;84;21155;-46
2022/07/26 06:28:56;;;;;;;2.25;1.32;;;;;;;21.75;57.28;99037.94;1707695;84;20903;-46
2022/07/26 06:31:23;;;;;;;4.53;1.60;;;;;;;21.81;57.67;99039.54;1707570;83;21046;-46
2022/07/26 06:33:50;;;;;;;2.98;1.40;;;;;;;21.85;57.01;99034.07;1707641;83;21524;-46
2022/07/26 06:36:18;;;;;;;2.12;1.52;;;;;;;21.90;57.34;99029.98;1707663;83;21499;-45
2022/07/26 06:38:45;;;;;;;4.85;1.65;;;;;;;21.98;57.06;99027.17;1707250;84;23240;-45
2022/07/26 06:41:12;;;;;;;2.70;1.57;;;;;;;22.08;56.80;99032.35;1707382;84;21580;-46
2022/07/26 06:43:39;;;;;;;2.30;1.35;;;;;;;22.16;56.53;99022.47;1707491;83;21009;-46
2022/07/26 06:46:06;;;;;;;2.40;1.47;;;;;;;22.23;56.20;99031.88;1707454;83;21013;-46
2022/07/26 06:48:34;;;;;;;1.72;1.30;;;;;;;22.28;55.73;99033.47;1707572;84;21610;-46
2022/07/26 06:51:02;;;;;;;4.08;1.50;;;;;;;22.32;55.44;99037.48;1707607;84;21103;-45
2022/07/26 06:53:29;;;;;;;6.40;1.70;;;;;;;22.39;55.41;99034.49;1707302;83;21052;-46
2022/07/26 06:55:56;;;;;;;2.05;1.55;;;;;;;22.45;55.55;99029.95;1707484;83;21512;-45
2022/07/26 06:58:23;;;;;;;3.30;1.47;;;;;;;22.54;54.85;99030.02;1707445;83;21042;-46
2022/07/26 07:00:50;;;;;;;1.92;1.40;;;;;;;22.61;55.25;99028.38;1707560;83;21042;-45
2022/07/26 07:03:17;;;;;;;2.37;1.25;;;;;;;22.69;54.83;99032.45;1707519;84;21343;-46
2022/07/26 07:05:44;;;;;;;4.10;1.40;;;;;;;22.76;54.58;99030.83;1713211;83;21020;-46
2022/07/26 07:08:11;;;;;;;1.57;1.37;;;;;;;22.79;53.72;99027.19;1720679;83;20957;-46
2022/07/26 07:10:38;;;;;;;4.55;1.30;;;;;;;22.79;53.58;99026.41;1720731;83;21021;-45
2022/07/26 07:13:05;;;;;;;1.32;1.20;;;;;;;22.79;53.67;99027.19;1720875;83;21104;-45
2022/07/26 07:15:32;;;;;;;1.55;1.32;;;;;;;22.83;53.07;99031.97;1720711;83;21206;-45
2022/07/26 07:17:59;;;;;;;2.02;1.40;;;;;;;22.78;52.56;99029.01;1720880;83;20981;-46
2022/07/26 07:20:27;;;;;;;1.72;1.30;;;;;;;22.72;53.38;99025.27;1720998;83;20993;-46
2022/07/26 07:22:54;;;;;;;1.35;1.20;;;;;;;22.70;53.35;99025.73;1720901;83;21053;-45
2022/07/26 07:25:21;;;;;;;2.67;1.40;;;;;;;22.78;53.40;99027.63;1720951;83;21040;-46
2022/07/26 07:27:48;;;;;;;2.17;1.30;;;;;;;22.87;53.00;99025.70;1720915;83;21894;-46
2022/07/26 07:30:15;;;;;;;2.58;1.30;;;;;;;22.99;52.97;99021.94;1720977;83;21028;-45
2022/07/26 07:32:43;;;;;;;1.75;1.45;;;;;;;23.10;52.54;99018.92;1720750;83;21085;-46
2022/07/26 07:35:10;;;;;;;2.15;1.37;;;;;;;23.21;52.19;99013.77;1720654;83;21084;-46
2022/07/26 07:37:38;;;;;;;3.27;1.30;;;;;;;23.33;51.75;99013.53;1720643;83;21065;-46
2022/07/26 07:40:08;;;;;;;2.35;1.37;;;;;;;23.36;51.69;99020.91;1720757;83;21142;-46
2022/07/26 07:42:35;;;;;;;2.83;1.35;;;;;;;23.31;50.93;99016.74;1720990;83;21010;-46
2022/07/26 07:45:04;;;;;;;3.10;1.35;;;;;;;23.26;51.42;99016.56;1720809;83;21002;-46
2022/07/26 07:47:34;;;;;;;2.10;1.35;;;;;;;23.34;51.21;99014.44;1720525;83;21056;-46
2022/07/26 07:50:01;;;;;;;1.40;1.30;;;;;;;23.52;51.78;99013.80;1720998;83;21511;-46
2022/07/26 07:52:29;;;;;;;1.30;1.20;;;;;;;23.74;51.42;99006.80;1720744;83;21253;-46
2022/07/26 07:54:56;;;;;;;1.67;1.30;;;;;;;23.90;50.04;99014.07;1720699;83;20914;-45
2022/07/26 07:57:23;;;;;;;2.08;1.10;;;;;;;23.94;49.96;99011.92;1720802;83;21028;-46
2022/07/26 07:59:51;;;;;;;1.95;1.30;;;;;;;23.93;50.16;99003.45;1720626;83;21049;-46
2022/07/26 08:02:18;;;;;;;1.50;1.00;;;;;;;23.94;50.16;99013.31;1720811;83;21045;-45
2022/07/26 08:04:45;;;;;;;1.42;1.22;;;;;;;23.99;49.76;99014.09;1720618;83;21250;-46
2022/07/26 08:07:13;;;;;;;2.25;1.10;;;;;;;24.05;49.09;99007.50;1708575;83;21030;-46
2022/07/26 08:09:40;;;;;;;1.55;1.20;;;;;;;24.17;48.95;99005.84;1707964;83;21050;-46
2022/07/26 08:12:10;;;;;;;2.10;1.40;;;;;;;24.32;49.24;99008.16;1707924;83;21054;-45
2022/07/26 08:14:37;;;;;;;3.67;2.45;;;;;;;24.54;49.45;99006.64;1707827;83;21114;-46
2022/07/26 08:17:05;;;;;;;3.42;1.75;;;;;;;24.77;48.50;99004.63;1707837;84;23163;-46
2022/07/26 08:19:33;;;;;;;2.83;1.30;;;;;;;24.99;47.88;99007.22;1707626;83;21027;-46
2022/07/26 08:22:03;;;;;;;1.80;1.30;;;;;;;25.19;47.05;99001.94;1707845;83;21513;-45
2022/07/26 08:24:30;;;;;;;1.90;1.30;;;;;;;25.39;46.58;99002.19;1707616;84;21093;-46
2022/07/26 08:26:58;;;;;;;1.40;1.30;;;;;;;25.53;46.42;98994.56;1707730;83;21026;-46
2022/07/26 08:29:26;;;;;;;2.47;1.37;;;;;;;25.74;45.52;98987.87;1707514;84;23213;-46
2022/07/26 08:31:53;;;;;;;1.82;1.27;;;;;;;25.98;44.77;98992.05;1707498;84;20978;-46
2022/07/26 08:34:21;;;;;;;1.37;1.20;;;;;;;26.17;44.53;98985.90;1707697;84;20903;-46
2022/07/26 08:36:48;;;;;;;1.50;1.40;;;;;;;26.31;44.02;98988.59;1707438;84;22215;-46
2022/07/26 08:39:16;;;;;;;2.08;1.50;;;;;;;26.38;43.98;98984.08;1707541;83;21100;-46
2022/07/26 08:41:43;;;;;;;1.90;1.42;;;;;;;26.35;43.87;98992.73;1707512;84;21299;-46
2022/07/26 08:44:10;;;;;;;2.52;1.70;;;;;;;26.22;43.38;98988.05;1702009;84;21005;-46
2022/07/26 08:46:39;;;;;;;2.75;1.42;;;;;;;26.08;43.64;98993.53;1707695;84;20993;-46
2022/07/26 08:49:08;;;;;;;1.75;1.40;;;;;;;26.02;44.14;99000.35;1707564;84;20950;-46
2022/07/26 08:51:42;;;;;;;2.22;1.35;;;;;;;26.09;43.98;99002.79;1707898;84;21089;-46
2022/07/26 08:54:12;;;;;;;1.98;1.35;;;;;;;26.26;43.19;98993.42;1707671;84;21093;-46
2022/07/26 08:56:51;;;;;;;2.47;1.42;;;;;;;26.46;43.23;98992.19;1707672;84;20934;-46
2022/07/26 08:59:19;;;;;;;1.67;1.40;;;;;;;26.61;43.37;98992.22;1708456;84;20954;-46
2022/07/26 09:02:00;;;;;;;1.57;1.25;;;;;;;26.77;42.77;98983.42;1707990;84;21077;-46
2022/07/26 09:04:34;;;;;;;2.75;1.35;;;;;;;26.87;41.84;98986.27;1707946;83;21101;-45
2022/07/26 09:07:12;;;;;;;2.17;1.32;;;;;;;26.88;42.68;98993.38;1707833;84;21954;-46
2022/07/26 09:10:01;;;;;;;1.77;1.40;;;;;;;26.79;41.05;98990.03;1708051;83;20954;-46
2022/07/26 09:12:29;;;;;;;1.55;1.10;;;;;;;26.70;41.45;98986.57;1707716;83;21193;-46
2022/07/26 09:14:57;;;;;;;3.02;1.27;;;;;;;26.72;42.51;98979.92;1707693;84;20965;-46
2022/07/26 09:17:27;;;;;;;1.52;1.15;;;;;;;26.81;41.43;98977.05;1707849;84;21057;-46
2022/07/26 09:20:12;;;;;;;2.25;1.30;;;;;;;26.86;42.28;98973.63;1705137;84;21602;-46
2022/07/26 09:23:02;;;;;;;1.92;1.17;;;;;;;26.93;40.81;98980.19;1707592;84;20970;-46
2022/07/26 09:25:40;;;;;;;2.90;1.20;;;;;;;27.02;41.31;98982.87;1707633;84;21081;-46
2022/07/26 09:28:27;;;;;;;0.93;0.93;;;;;;;27.24;40.17;98978.31;1707889;83;21013;-46
2022/07/26 09:30:56;;;;;;;1.42;1.05;;;;;;;27.49;40.59;98979.74;1708087;84;21105;-46
2022/07/26 09:33:23;;;;;;;1.20;1.10;;;;;;;27.65;39.71;98968.06;1707929;83;21785;-46
2022/07/26 09:36:08;;;;;;;1.82;1.40;;;;;;;27.77;39.87;98973.95;1707791;83;21029;-46
2022/07/26 09:38:48;;;;;;;1.55;1.17;;;;;;;27.95;39.41;98967.33;1707754;83;21022;-46
2022/07/26 09:41:28;;;;;;;0.98;0.90;;;;;;;28.15;39.27;98970.78;1708040;83;21563;-46
2022/07/26 09:44:00;;;;;;;1.52;1.30;;;;;;;28.31;38.88;98964.02;1708104;84;21049;-46
2022/07/26 09:46:28;;;;;;;1.72;1.30;;;;;;;28.41;39.05;98968.82;1708076;83;21111;-46
2022/07/26 09:48:56;;;;;;;2.05;1.37;;;;;;;28.41;38.35;98968.82;1707860;84;21568;-46
2022/07/26 09:51:41;;;;;;;1.00;0.90;;;;;;;28.10;38.69;98940.16;1708261;83;21054;-46
2022/07/26 09:54:09;;;;;;;4.20;1.30;;;;;;;28.15;38.30;98979.14;1707810;83;22079;-46
2022/07/26 09:56:46;;;;;;;2.25;1.40;;;;;;;27.84;39.24;98982.50;1708032;84;21268;-46
2022/07/26 09:59:18;;;;;;;1.95;1.17;;;;;;;27.65;39.91;98977.81;1707893;83;20990;-46
2022/07/26 10:01:45;;;;;;;;;;;;;;;27.48;39.39;98980.95;1710504;83;21524;-46
2022/07/26 10:04:12;;;;;;;1.40;1.20;;;;;;;27.24;38.84;98976.30;1707895;84;20526;-46
2022/07/26 10:06:41;;;;;;;2.35;1.32;;;;;;;26.99;39.29;98976.88;1704307;83;21588;-46
2022/07/26 10:09:09;;;;;;;1.77;1.30;;;;;;;26.93;40.13;98969.06;1699965;84;21066;-46
2022/07/26 10:11:46;;;;;;;1.42;1.22;;;;;;;26.90;39.94;98970.65;1699835;84;21109;-46
2022/07/26 10:14:48;;;;;;;3.83;1.35;;;;;;;26.91;40.03;98967.39;1700047;84;21033;-46
2022/07/26 10:17:33;;;;;;;;;;;;;;;26.98;39.75;98959.27;1702797;84;20955;-46
2022/07/26 10:20:11;;;;;;;1.42;1.20;;;;;;;27.17;39.22;98959.98;1700316;84;20177;-45
2022/07/26 10:22:44;;;;;;;1.50;1.40;;;;;;;27.40;38.14;98957.55;1700059;84;21519;-45
2022/07/26 10:25:23;;;;;;;2.02;1.20;;;;;;;27.64;38.40;98956.15;1700015;84;21860;-46
2022/07/26 10:27:56;;;;;;;1.95;1.30;;;;;;;27.94;37.57;98951.23;1700000;83;20982;-46
2022/07/26 10:30:26;;;;;;;1.52;1.00;;;;;;;28.12;38.22;98953.66;1700117;83;20950;-46
2022/07/26 10:33:00;;;;;;;1.47;1.20;;;;;;;28.24;37.74;98950.50;1700234;83;21034;-46
2022/07/26 10:35:42;;;;;;;1.42;1.20;;;;;;;28.16;37.46;98958.38;1699950;83;21022;-46
2022/07/26 10:38:13;;;;;;;0.95;0.93;;;;;;;27.96;37.17;98957.10;1700011;83;21568;-46
2022/07/26 10:41:07;;;;;;;1.42;1.10;;;;;;;27.65;37.71;98956.30;1693644;84;20959;-46
2022/07/26 10:43:34;;;;;;;1.67;0.93;;;;;;;27.41;38.92;98964.02;1699931;83;21023;-46
2022/07/26 10:46:22;;;;;;;1.82;1.15;;;;;;;27.17;37.90;98961.37;1699841;84;21054;-46
2022/07/26 10:49:02;;;;;;;1.40;1.20;;;;;;;27.17;38.60;98958.59;1700226;84;21102;-46
2022/07/26 10:51:35;;;;;;;1.20;1.10;;;;;;;27.43;38.62;98951.01;1699993;84;21207;-46
2022/07/26 10:54:11;;;;;;;2.55;1.00;;;;;;;27.85;37.74;98949.98;1700171;84;20959;-46
2022/07/26 10:56:38;;;;;;;2.60;1.30;;;;;;;28.36;36.56;98943.03;1700002;83;21014;-46
2022/07/26 10:59:06;;;;;;;1.67;1.47;;;;;;;28.94;36.25;98940.46;1699910;83;21481;-46
2022/07/26 11:01:40;;;;;;;1.55;1.30;;;;;;;29.50;35.21;98939.50;1699871;83;21003;-46
2022/07/26 11:04:21;;;;;;;2.80;1.20;;;;;;;29.98;34.64;98943.71;1699836;84;23140;-46
2022/07/26 11:06:49;;;;;;;2.75;1.32;;;;;;;30.34;33.33;98945.64;1694542;84;20930;-46
2022/07/26 11:09:18;;;;;;;3.22;1.75;;;;;;;30.47;33.94;98938.95;1700037;84;21035;-46
2022/07/26 11:11:45;;;;;;;2.10;1.40;;;;;;;30.62;32.92;98932.50;1700066;83;21021;-46
2022/07/26 11:14:14;;;;;;;1.57;1.20;;;;;;;30.68;32.96;98933.14;1699747;83;21611;-46
2022/07/26 11:16:43;;;;;;;1.67;1.42;;;;;;;30.70;33.10;98936.19;1699732;84;21082;-46
2022/07/26 11:19:19;;;;;;;2.02;1.30;;;;;;;30.57;33.12;98933.25;1699785;84;21006;-46
2022/07/26 11:21:54;;;;;;;3.05;1.75;;;;;;;30.49;33.10;98930.06;1699808;84;21021;-46
2022/07/26 11:24:21;;;;;;;3.08;1.98;;;;;;;30.47;33.17;98927.77;1699572;84;21497;-46
2022/07/26 11:26:48;;;;;;;3.00;1.77;;;;;;;30.64;33.30;98931.34;1699833;83;21101;-46
2022/07/26 11:29:29;;;;;;;4.55;1.87;;;;;;;30.93;32.82;98920.95;1699890;84;21134;-46
2022/07/26 11:31:56;;;;;;;3.83;1.50;;;;;;;31.28;31.43;98924.63;1699570;84;21573;-46
2022/07/26 11:34:26;;;;;;;4.08;1.50;;;;;;;31.61;31.46;98919.66;1695244;84;21602;-46
2022/07/26 11:36:56;;;;;;;2.22;1.70;;;;;;;32.06;30.22;98918.19;1695067;84;21065;-46
2022/07/26 11:39:33;;;;;;;2.22;1.30;;;;;;;32.60;29.06;98916.26;1695093;84;21040;-46
2022/07/26 11:42:08;;;;;;;3.30;1.45;;;;;;;33.09;29.07;98912.33;1695139;84;21238;-46
2022/07/26 11:44:36;;;;;;;1.92;1.45;;;;;;;33.66;28.87;98904.87;1695366;84;21503;-46